sensor_id;sensor_type;location;lat;lon;timestamp;pressure;altitude;pressure_sealevel;temperature;humidity
80745;BME280;70143;52.396;16.950;2023-06-05T00:00:46;101216.84;;;13.61;54.78
80745;BME280;70143;52.396;16.950;2023-06-05T00:03:11;101225.94;;;13.51;55.57
80745;BME280;70143;52.396;16.950;2023-06-05T00:05:37;101213.81;;;13.47;55.78
80745;BME280;70143;52.396;16.950;2023-06-05T00:08:02;101222.09;;;13.35;55.85
80745;BME280;70143;52.396;16.950;2023-06-05T00:10:28;101223.81;;;13.36;55.55
80745;BME280;70143;52.396;16.950;2023-06-05T00:12:53;101215.47;;;13.21;55.06
80745;BME280;70143;52.396;16.950;2023-06-05T00:15:19;101220.25;;;13.08;55.87
80745;BME280;70143;52.396;16.950;2023-06-05T00:17:44;101230.81;;;13.07;55.38
80745;BME280;70143;52.396;16.950;2023-06-05T00:20:10;101226.19;;;12.85;55.36
80745;BME280;70143;52.396;16.950;2023-06-05T00:22:35;101225.00;;;12.67;55.24
80745;BME280;70143;52.396;16.950;2023-06-05T00:25:01;101217.53;;;12.52;54.87
80745;BME280;70143;52.396;16.950;2023-06-05T00:27:30;101222.88;;;12.49;54.52
80745;BME280;70143;52.396;16.950;2023-06-05T00:29:55;101227.44;;;12.42;54.22
80745;BME280;70143;52.396;16.950;2023-06-05T00:32:21;101236.25;;;12.39;54.35
80745;BME280;70143;52.396;16.950;2023-06-05T00:34:46;101224.28;;;12.29;54.58
80745;BME280;70143;52.396;16.950;2023-06-05T00:37:12;101239.06;;;12.33;54.59
80745;BME280;70143;52.396;16.950;2023-06-05T00:39:37;101235.75;;;12.27;54.43
80745;BME280;70143;52.396;16.950;2023-06-05T00:42:03;101231.81;;;12.10;54.86
80745;BME280;70143;52.396;16.950;2023-06-05T00:44:28;101243.06;;;12.14;55.58
80745;BME280;70143;52.396;16.950;2023-06-05T00:46:54;101238.84;;;12.08;55.28
80745;BME280;70143;52.396;16.950;2023-06-05T00:49:20;101247.81;;;12.01;55.24
80745;BME280;70143;52.396;16.950;2023-06-05T00:51:46;101242.75;;;11.92;55.69
80745;BME280;70143;52.396;16.950;2023-06-05T00:54:12;101238.44;;;11.89;56.10
80745;BME280;70143;52.396;16.950;2023-06-05T00:56:38;101241.19;;;11.84;56.32
80745;BME280;70143;52.396;16.950;2023-06-05T00:59:03;101242.25;;;11.77;56.33
80745;BME280;70143;52.396;16.950;2023-06-05T01:01:29;101244.06;;;11.75;56.45
80745;BME280;70143;52.396;16.950;2023-06-05T01:03:55;101236.34;;;11.69;56.46
80745;BME280;70143;52.396;16.950;2023-06-05T01:06:21;101248.78;;;11.59;57.13
80745;BME280;70143;52.396;16.950;2023-06-05T01:08:46;101249.78;;;11.53;57.50
80745;BME280;70143;52.396;16.950;2023-06-05T01:11:27;101249.91;;;11.49;57.36
80745;BME280;70143;52.396;16.950;2023-06-05T01:14:06;101245.69;;;11.43;57.73
80745;BME280;70143;52.396;16.950;2023-06-05T01:16:33;101238.72;;;11.42;59.20
80745;BME280;70143;52.396;16.950;2023-06-05T01:19:00;101244.03;;;11.39;59.40
80745;BME280;70143;52.396;16.950;2023-06-05T01:21:25;101248.34;;;11.42;59.12
80745;BME280;70143;52.396;16.950;2023-06-05T01:23:51;101235.28;;;11.40;59.18
80745;BME280;70143;52.396;16.950;2023-06-05T01:26:19;101245.84;;;11.37;60.10
80745;BME280;70143;52.396;16.950;2023-06-05T01:28:49;101241.41;;;11.39;59.73
80745;BME280;70143;52.396;16.950;2023-06-05T01:31:19;101243.06;;;11.43;59.94
80745;BME280;70143;52.396;16.950;2023-06-05T01:33:54;101244.69;;;11.47;60.01
80745;BME280;70143;52.396;16.950;2023-06-05T01:36:23;101240.53;;;11.40;60.15
80745;BME280;70143;52.396;16.950;2023-06-05T01:38:50;101251.78;;;11.44;59.72
80745;BME280;70143;52.396;16.950;2023-06-05T01:41:17;101243.97;;;11.42;60.96
80745;BME280;70143;52.396;16.950;2023-06-05T01:43:44;101256.88;;;11.50;60.94
80745;BME280;70143;52.396;16.950;2023-06-05T01:46:12;101238.50;;;11.51;60.88
80745;BME280;70143;52.396;16.950;2023-06-05T01:48:39;101248.97;;;11.51;61.38
80745;BME280;70143;52.396;16.950;2023-06-05T01:51:05;101247.28;;;11.49;62.09
80745;BME280;70143;52.396;16.950;2023-06-05T01:53:30;101250.88;;;11.46;61.04
80745;BME280;70143;52.396;16.950;2023-06-05T01:55:57;101244.81;;;11.43;59.54
80745;BME280;70143;52.396;16.950;2023-06-05T01:58:23;101245.78;;;11.40;59.78
80745;BME280;70143;52.396;16.950;2023-06-05T02:00:49;101237.91;;;11.40;60.53
80745;BME280;70143;52.396;16.950;2023-06-05T02:03:16;101237.00;;;11.41;59.60
80745;BME280;70143;52.396;16.950;2023-06-05T02:05:42;101242.31;;;11.38;60.74
80745;BME280;70143;52.396;16.950;2023-06-05T02:08:08;101242.38;;;11.35;60.56
80745;BME280;70143;52.396;16.950;2023-06-05T02:10:33;101234.56;;;11.33;60.59
80745;BME280;70143;52.396;16.950;2023-06-05T02:12:59;101229.41;;;11.29;61.08
80745;BME280;70143;52.396;16.950;2023-06-05T02:15:24;101240.72;;;11.31;61.49
80745;BME280;70143;52.396;16.950;2023-06-05T02:17:51;101235.59;;;11.26;61.93
80745;BME280;70143;52.396;16.950;2023-06-05T02:20:17;101229.75;;;11.15;62.88
80745;BME280;70143;52.396;16.950;2023-06-05T02:22:43;101231.38;;;11.21;61.62
80745;BME280;70143;52.396;16.950;2023-06-05T02:25:08;101228.75;;;11.21;61.62
80745;BME280;70143;52.396;16.950;2023-06-05T02:27:34;101226.94;;;11.23;60.90
80745;BME280;70143;52.396;16.950;2023-06-05T02:29:59;101229.56;;;11.23;60.98
80745;BME280;70143;52.396;16.950;2023-06-05T02:32:25;101224.41;;;11.19;61.00
80745;BME280;70143;52.396;16.950;2023-06-05T02:34:51;101228.69;;;11.24;60.81
80745;BME280;70143;52.396;16.950;2023-06-05T02:37:16;101228.97;;;11.11;60.89
80745;BME280;70143;52.396;16.950;2023-06-05T02:39:42;101232.34;;;11.16;60.79
80745;BME280;70143;52.396;16.950;2023-06-05T02:42:07;101230.47;;;11.22;60.41
80745;BME280;70143;52.396;16.950;2023-06-05T02:44:33;101221.84;;;11.16;60.60
80745;BME280;70143;52.396;16.950;2023-06-05T02:46:58;101233.16;;;11.18;61.25
80745;BME280;70143;52.396;16.950;2023-06-05T02:49:24;101234.91;;;11.18;60.59
80745;BME280;70143;52.396;16.950;2023-06-05T02:51:49;101234.84;;;11.21;60.71
80745;BME280;70143;52.396;16.950;2023-06-05T02:54:16;101228.75;;;11.21;61.91
80745;BME280;70143;52.396;16.950;2023-06-05T02:56:41;101234.81;;;11.23;60.55
80745;BME280;70143;52.396;16.950;2023-06-05T02:59:07;101226.94;;;11.23;61.46
80745;BME280;70143;52.396;16.950;2023-06-05T03:01:32;101231.16;;;11.30;60.21
80745;BME280;70143;52.396;16.950;2023-06-05T03:03:58;101229.38;;;11.30;60.73
80745;BME280;70143;52.396;16.950;2023-06-05T03:06:23;101230.19;;;11.34;60.34
80745;BME280;70143;52.396;16.950;2023-06-05T03:08:49;101231.13;;;11.31;60.37
80745;BME280;70143;52.396;16.950;2023-06-05T03:11:14;101229.34;;;11.32;60.39
80745;BME280;70143;52.396;16.950;2023-06-05T03:13:39;101223.94;;;11.40;60.24
80745;BME280;70143;52.396;16.950;2023-06-05T03:16:05;101229.09;;;11.43;59.71
80745;BME280;70143;52.396;16.950;2023-06-05T03:18:30;101229.91;;;11.46;60.13
80745;BME280;70143;52.396;16.950;2023-06-05T03:20:56;101233.25;;;11.51;59.77
80745;BME280;70143;52.396;16.950;2023-06-05T03:23:23;101232.19;;;11.60;59.27
80745;BME280;70143;52.396;16.950;2023-06-05T03:25:49;101235.69;;;11.59;59.74
80745;BME280;70143;52.396;16.950;2023-06-05T03:28:16;101229.44;;;11.65;59.69
80745;BME280;70143;52.396;16.950;2023-06-05T03:30:41;101225.00;;;11.67;59.47
80745;BME280;70143;52.396;16.950;2023-06-05T03:33:07;101222.22;;;11.73;59.02
80745;BME280;70143;52.396;16.950;2023-06-05T03:35:32;101226.44;;;11.80;58.31
80745;BME280;70143;52.396;16.950;2023-06-05T03:37:58;101223.66;;;11.86;58.33
80745;BME280;70143;52.396;16.950;2023-06-05T03:40:24;101223.56;;;11.89;57.92
80745;BME280;70143;52.396;16.950;2023-06-05T03:42:50;101221.75;;;11.95;58.17
80745;BME280;70143;52.396;16.950;2023-06-05T03:45:15;101230.53;;;11.90;58.72
80745;BME280;70143;52.396;16.950;2023-06-05T03:47:41;101223.34;;;11.99;57.93
80745;BME280;70143;52.396;16.950;2023-06-05T03:50:07;101219.69;;;12.06;57.78
80745;BME280;70143;52.396;16.950;2023-06-05T03:52:32;101227.34;;;12.14;57.87
80745;BME280;70143;52.396;16.950;2023-06-05T03:54:58;101227.22;;;12.18;57.52
80745;BME280;70143;52.396;16.950;2023-06-05T03:57:24;101218.31;;;12.24;57.74
80745;BME280;70143;52.396;16.950;2023-06-05T03:59:49;101223.50;;;12.27;57.33
80745;BME280;70143;52.396;16.950;2023-06-05T04:02:15;101223.31;;;12.33;57.00
80745;BME280;70143;52.396;16.950;2023-06-05T04:04:40;101229.22;;;12.41;57.30
80745;BME280;70143;52.396;16.950;2023-06-05T04:07:06;101222.88;;;12.49;57.00
80745;BME280;70143;52.396;16.950;2023-06-05T04:09:32;101221.75;;;12.57;56.64
80745;BME280;70143;52.396;16.950;2023-06-05T04:11:58;101220.88;;;12.58;56.42
80745;BME280;70143;52.396;16.950;2023-06-05T04:14:23;101229.31;;;12.68;56.27
80745;BME280;70143;52.396;16.950;2023-06-05T04:16:49;101223.13;;;12.71;56.48
80745;BME280;70143;52.396;16.950;2023-06-05T04:19:14;101220.31;;;12.77;56.70
80745;BME280;70143;52.396;16.950;2023-06-05T04:21:41;101223.44;;;12.90;56.13
80745;BME280;70143;52.396;16.950;2023-06-05T04:24:08;101225.84;;;12.98;55.80
80745;BME280;70143;52.396;16.950;2023-06-05T04:26:36;101225.56;;;13.07;55.91
80745;BME280;70143;52.396;16.950;2023-06-05T04:29:02;101219.19;;;13.14;56.13
80745;BME280;70143;52.396;16.950;2023-06-05T04:31:31;101223.25;;;13.24;55.78
80745;BME280;70143;52.396;16.950;2023-06-05T04:33:57;101228.16;;;13.37;54.91
80745;BME280;70143;52.396;16.950;2023-06-05T04:36:24;101229.69;;;13.44;55.06
80745;BME280;70143;52.396;16.950;2023-06-05T04:38:49;101224.13;;;13.53;54.69
80745;BME280;70143;52.396;16.950;2023-06-05T04:41:15;101219.44;;;13.63;54.72
80745;BME280;70143;52.396;16.950;2023-06-05T04:43:40;101223.53;;;13.72;54.12
80745;BME280;70143;52.396;16.950;2023-06-05T04:46:06;101231.78;;;13.86;54.07
80745;BME280;70143;52.396;16.950;2023-06-05T04:48:31;101231.59;;;13.92;53.95
80745;BME280;70143;52.396;16.950;2023-06-05T04:50:57;101225.78;;;14.08;53.47
80745;BME280;70143;52.396;16.950;2023-06-05T04:53:24;101229.03;;;14.16;52.52
80745;BME280;70143;52.396;16.950;2023-06-05T04:55:49;101225.09;;;14.28;53.39
80745;BME280;70143;52.396;16.950;2023-06-05T04:58:15;101227.13;;;14.45;53.08
80745;BME280;70143;52.396;16.950;2023-06-05T05:00:40;101226.53;;;14.60;52.00
80745;BME280;70143;52.396;16.950;2023-06-05T05:03:06;101224.25;;;14.76;51.44
80745;BME280;70143;52.396;16.950;2023-06-05T05:05:31;101220.13;;;14.91;51.56
80745;BME280;70143;52.396;16.950;2023-06-05T05:07:57;101217.78;;;15.07;51.23
80745;BME280;70143;52.396;16.950;2023-06-05T05:10:22;101212.78;;;15.21;50.45
80745;BME280;70143;52.396;16.950;2023-06-05T05:12:48;101214.97;;;15.34;50.10
80745;BME280;70143;52.396;16.950;2023-06-05T05:15:13;101219.59;;;15.49;49.78
80745;BME280;70143;52.396;16.950;2023-06-05T05:17:39;101217.13;;;15.67;48.85
80745;BME280;70143;52.396;16.950;2023-06-05T05:20:04;101215.78;;;15.78;47.98
80745;BME280;70143;52.396;16.950;2023-06-05T05:22:30;101220.38;;;15.94;47.81
80745;BME280;70143;52.396;16.950;2023-06-05T05:24:56;101225.25;;;16.03;47.95
80745;BME280;70143;52.396;16.950;2023-06-05T05:27:21;101219.34;;;16.19;46.86
80745;BME280;70143;52.396;16.950;2023-06-05T05:29:46;101227.34;;;16.36;46.71
80745;BME280;70143;52.396;16.950;2023-06-05T05:32:12;101232.88;;;16.50;46.16
80745;BME280;70143;52.396;16.950;2023-06-05T05:34:37;101232.13;;;16.67;45.46
80745;BME280;70143;52.396;16.950;2023-06-05T05:37:03;101225.56;;;16.76;45.03
80745;BME280;70143;52.396;16.950;2023-06-05T05:39:29;101227.66;;;16.89;44.27
80745;BME280;70143;52.396;16.950;2023-06-05T05:41:54;101222.69;;;17.00;43.70
80745;BME280;70143;52.396;16.950;2023-06-05T05:44:21;101239.31;;;17.21;42.81
80745;BME280;70143;52.396;16.950;2023-06-05T05:46:47;101236.09;;;17.33;42.00
80745;BME280;70143;52.396;16.950;2023-06-05T05:49:14;101237.34;;;17.44;41.76
80745;BME280;70143;52.396;16.950;2023-06-05T05:51:39;101235.22;;;17.52;40.43
80745;BME280;70143;52.396;16.950;2023-06-05T05:54:05;101238.53;;;17.55;40.25
80745;BME280;70143;52.396;16.950;2023-06-05T05:56:30;101242.91;;;17.56;40.13
80745;BME280;70143;52.396;16.950;2023-06-05T05:58:56;101237.84;;;17.69;39.54
80745;BME280;70143;52.396;16.950;2023-06-05T06:01:22;101236.47;;;17.80;39.67
80745;BME280;70143;52.396;16.950;2023-06-05T06:03:47;101243.41;;;18.00;39.87
80745;BME280;70143;52.396;16.950;2023-06-05T06:06:13;101230.78;;;18.22;40.10
80745;BME280;70143;52.396;16.950;2023-06-05T06:08:38;101232.13;;;18.47;38.74
80745;BME280;70143;52.396;16.950;2023-06-05T06:11:04;101230.50;;;18.60;37.15
80745;BME280;70143;52.396;16.950;2023-06-05T06:13:29;101237.66;;;18.76;37.47
80745;BME280;70143;52.396;16.950;2023-06-05T06:15:55;101235.88;;;18.92;36.39
80745;BME280;70143;52.396;16.950;2023-06-05T06:18:20;101240.53;;;19.05;36.07
80745;BME280;70143;52.396;16.950;2023-06-05T06:20:46;101240.00;;;19.14;35.64
80745;BME280;70143;52.396;16.950;2023-06-05T06:23:12;101247.09;;;19.29;35.87
80745;BME280;70143;52.396;16.950;2023-06-05T06:25:38;101254.50;;;19.39;35.47
80745;BME280;70143;52.396;16.950;2023-06-05T06:28:04;101250.97;;;19.54;35.63
80745;BME280;70143;52.396;16.950;2023-06-05T06:30:30;101249.31;;;19.67;34.83
80745;BME280;70143;52.396;16.950;2023-06-05T06:32:56;101251.28;;;19.80;34.12
80745;BME280;70143;52.396;16.950;2023-06-05T06:35:22;101255.47;;;19.84;33.66
80745;BME280;70143;52.396;16.950;2023-06-05T06:37:48;101254.72;;;19.82;33.28
80745;BME280;70143;52.396;16.950;2023-06-05T06:40:13;101253.81;;;19.97;33.47
80745;BME280;70143;52.396;16.950;2023-06-05T06:42:39;101250.97;;;20.00;33.08
80745;BME280;70143;52.396;16.950;2023-06-05T06:45:05;101254.00;;;20.09;33.57
80745;BME280;70143;52.396;16.950;2023-06-05T06:47:30;101251.84;;;20.15;33.79
80745;BME280;70143;52.396;16.950;2023-06-05T06:49:56;101254.41;;;20.31;33.36
80745;BME280;70143;52.396;16.950;2023-06-05T06:52:22;101252.34;;;20.36;33.32
80745;BME280;70143;52.396;16.950;2023-06-05T06:54:47;101245.78;;;20.42;33.00
80745;BME280;70143;52.396;16.950;2023-06-05T06:57:13;101246.72;;;20.55;32.98
80745;BME280;70143;52.396;16.950;2023-06-05T06:59:38;101251.41;;;20.66;32.13
80745;BME280;70143;52.396;16.950;2023-06-05T07:02:23;101239.84;;;20.67;32.49
80745;BME280;70143;52.396;16.950;2023-06-05T07:04:50;101244.91;;;20.99;32.51
80745;BME280;70143;52.396;16.950;2023-06-05T07:07:17;101249.09;;;21.03;31.68
80745;BME280;70143;52.396;16.950;2023-06-05T07:09:44;101249.25;;;21.15;31.60
80745;BME280;70143;52.396;16.950;2023-06-05T07:12:11;101241.84;;;21.20;31.42
80745;BME280;70143;52.396;16.950;2023-06-05T07:14:38;101244.19;;;21.24;31.07
80745;BME280;70143;52.396;16.950;2023-06-05T07:17:04;101245.22;;;21.22;31.13
80745;BME280;70143;52.396;16.950;2023-06-05T07:19:33;101253.75;;;21.27;31.26
80745;BME280;70143;52.396;16.950;2023-06-05T07:22:00;101251.47;;;21.35;31.29
80745;BME280;70143;52.396;16.950;2023-06-05T07:24:27;101258.09;;;21.42;30.65
80745;BME280;70143;52.396;16.950;2023-06-05T07:27:03;101256.81;;;21.48;30.41
80745;BME280;70143;52.396;16.950;2023-06-05T07:29:30;101259.00;;;21.56;30.70
80745;BME280;70143;52.396;16.950;2023-06-05T07:31:57;101251.69;;;21.59;30.61
80745;BME280;70143;52.396;16.950;2023-06-05T07:34:24;101258.22;;;21.68;30.88
80745;BME280;70143;52.396;16.950;2023-06-05T07:36:50;101261.19;;;21.76;30.57
80745;BME280;70143;52.396;16.950;2023-06-05T07:39:17;101255.88;;;21.76;29.06
80745;BME280;70143;52.396;16.950;2023-06-05T07:41:43;101251.63;;;21.87;29.48
80745;BME280;70143;52.396;16.950;2023-06-05T07:44:14;101247.59;;;21.94;29.30
80745;BME280;70143;52.396;16.950;2023-06-05T07:46:41;101244.53;;;22.00;28.95
80745;BME280;70143;52.396;16.950;2023-06-05T07:49:07;101248.44;;;22.07;28.83
80745;BME280;70143;52.396;16.950;2023-06-05T07:51:32;101238.88;;;22.18;28.85
80745;BME280;70143;52.396;16.950;2023-06-05T07:53:58;101250.41;;;22.31;28.57
80745;BME280;70143;52.396;16.950;2023-06-05T07:56:23;101244.88;;;22.34;28.10
80745;BME280;70143;52.396;16.950;2023-06-05T07:58:49;101243.25;;;22.31;26.26
80745;BME280;70143;52.396;16.950;2023-06-05T08:01:14;101242.09;;;22.36;27.07
80745;BME280;70143;52.396;16.950;2023-06-05T08:03:40;101244.31;;;22.29;27.07
80745;BME280;70143;52.396;16.950;2023-06-05T08:06:05;101233.78;;;22.40;28.09
80745;BME280;70143;52.396;16.950;2023-06-05T08:08:30;101235.69;;;22.51;27.30
80745;BME280;70143;52.396;16.950;2023-06-05T08:10:56;101240.34;;;22.60;27.57
80745;BME280;70143;52.396;16.950;2023-06-05T08:13:21;101235.78;;;22.62;26.64
80745;BME280;70143;52.396;16.950;2023-06-05T08:15:47;101243.78;;;22.62;26.72
80745;BME280;70143;52.396;16.950;2023-06-05T08:18:14;101239.84;;;22.68;26.91
80745;BME280;70143;52.396;16.950;2023-06-05T08:20:40;101245.25;;;22.79;26.31
80745;BME280;70143;52.396;16.950;2023-06-05T08:23:05;101245.25;;;22.79;26.10
80745;BME280;70143;52.396;16.950;2023-06-05T08:25:31;101233.91;;;22.89;26.24
80745;BME280;70143;52.396;16.950;2023-06-05T08:27:56;101238.91;;;22.93;25.68
80745;BME280;70143;52.396;16.950;2023-06-05T08:30:23;101239.31;;;23.00;26.35
80745;BME280;70143;52.396;16.950;2023-06-05T08:32:48;101229.50;;;23.00;25.38
80745;BME280;70143;52.396;16.950;2023-06-05T08:35:14;101235.44;;;23.04;25.58
80745;BME280;70143;52.396;16.950;2023-06-05T08:37:39;101245.38;;;23.15;25.36
80745;BME280;70143;52.396;16.950;2023-06-05T08:40:06;101233.44;;;23.08;24.92
80745;BME280;70143;52.396;16.950;2023-06-05T08:42:32;101238.84;;;23.19;25.54
80745;BME280;70143;52.396;16.950;2023-06-05T08:44:57;101244.59;;;23.26;24.80
80745;BME280;70143;52.396;16.950;2023-06-05T08:47:27;101244.94;;;23.21;24.06
80745;BME280;70143;52.396;16.950;2023-06-05T08:49:54;101241.28;;;23.22;24.10
80745;BME280;70143;52.396;16.950;2023-06-05T08:52:22;101237.31;;;23.28;25.10
80745;BME280;70143;52.396;16.950;2023-06-05T08:54:49;101236.28;;;23.42;23.75
80745;BME280;70143;52.396;16.950;2023-06-05T08:57:15;101235.69;;;23.38;23.55
80745;BME280;70143;52.396;16.950;2023-06-05T08:59:41;101234.97;;;23.47;25.16
80745;BME280;70143;52.396;16.950;2023-06-05T09:02:09;101232.81;;;23.52;24.48
80745;BME280;70143;52.396;16.950;2023-06-05T09:04:35;101233.91;;;23.50;23.55
80745;BME280;70143;52.396;16.950;2023-06-05T09:07:00;101230.91;;;23.66;25.34
80745;BME280;70143;52.396;16.950;2023-06-05T09:09:26;101230.50;;;23.83;25.24
80745;BME280;70143;52.396;16.950;2023-06-05T09:12:02;101231.06;;;24.00;23.86
80745;BME280;70143;52.396;16.950;2023-06-05T09:14:28;101225.91;;;23.85;22.93
80745;BME280;70143;52.396;16.950;2023-06-05T09:16:53;101227.81;;;23.83;22.48
80745;BME280;70143;52.396;16.950;2023-06-05T09:19:19;101223.84;;;23.89;22.63
80745;BME280;70143;52.396;16.950;2023-06-05T09:21:52;101228.22;;;23.90;22.06
80745;BME280;70143;52.396;16.950;2023-06-05T09:24:24;101215.47;;;23.94;22.46
80745;BME280;70143;52.396;16.950;2023-06-05T09:26:57;101224.63;;;23.78;21.78
80745;BME280;70143;52.396;16.950;2023-06-05T09:29:28;101218.34;;;23.79;22.57
80745;BME280;70143;52.396;16.950;2023-06-05T09:34:27;101215.09;;;23.51;21.65
80745;BME280;70143;52.396;16.950;2023-06-05T09:36:56;101213.28;;;23.63;22.24
80745;BME280;70143;52.396;16.950;2023-06-05T09:39:22;101207.88;;;23.41;21.97
80745;BME280;70143;52.396;16.950;2023-06-05T09:41:48;101210.22;;;23.45;22.56
80745;BME280;70143;52.396;16.950;2023-06-05T09:44:14;101212.22;;;23.66;22.15
80745;BME280;70143;52.396;16.950;2023-06-05T09:47:06;101207.66;;;23.79;22.55
80745;BME280;70143;52.396;16.950;2023-06-05T09:49:45;101207.22;;;23.85;22.66
80745;BME280;70143;52.396;16.950;2023-06-05T09:52:12;101204.53;;;23.97;22.56
80745;BME280;70143;52.396;16.950;2023-06-05T09:54:40;101193.53;;;24.01;22.81
80745;BME280;70143;52.396;16.950;2023-06-05T09:57:08;101207.13;;;24.09;22.47
80745;BME280;70143;52.396;16.950;2023-06-05T09:59:35;101202.38;;;24.02;22.22
80745;BME280;70143;52.396;16.950;2023-06-05T10:02:06;101200.44;;;24.04;21.79
80745;BME280;70143;52.396;16.950;2023-06-05T10:04:38;101200.69;;;24.12;22.17
80745;BME280;70143;52.396;16.950;2023-06-05T10:07:05;101188.53;;;24.19;22.23
80745;BME280;70143;52.396;16.950;2023-06-05T10:09:31;101195.59;;;24.32;21.79
80745;BME280;70143;52.396;16.950;2023-06-05T10:11:56;101190.13;;;24.33;21.67
80745;BME280;70143;52.396;16.950;2023-06-05T10:14:22;101190.38;;;24.41;21.65
80745;BME280;70143;52.396;16.950;2023-06-05T10:16:51;101186.34;;;24.47;21.22
80745;BME280;70143;52.396;16.950;2023-06-05T10:19:17;101189.13;;;24.57;20.95
80745;BME280;70143;52.396;16.950;2023-06-05T10:21:49;101185.28;;;24.61;21.74
80745;BME280;70143;52.396;16.950;2023-06-05T10:24:22;101178.34;;;24.70;20.70
80745;BME280;70143;52.396;16.950;2023-06-05T10:32:53;101179.75;;;24.85;20.92
80745;BME280;70143;52.396;16.950;2023-06-05T10:38:24;101178.75;;;24.97;20.07
80745;BME280;70143;52.396;16.950;2023-06-05T10:40:57;101172.19;;;24.90;20.30
80745;BME280;70143;52.396;16.950;2023-06-05T10:43:23;101171.44;;;25.00;20.25
80745;BME280;70143;52.396;16.950;2023-06-05T10:45:48;101158.34;;;24.85;20.39
80745;BME280;70143;52.396;16.950;2023-06-05T10:48:14;101165.75;;;24.93;20.96
80745;BME280;70143;52.396;16.950;2023-06-05T10:50:39;101160.50;;;25.03;19.90
80745;BME280;70143;52.396;16.950;2023-06-05T10:53:05;101158.84;;;25.11;20.79
80745;BME280;70143;52.396;16.950;2023-06-05T10:55:41;101156.13;;;24.90;20.25
80745;BME280;70143;52.396;16.950;2023-06-05T10:58:11;101159.50;;;25.04;20.37
80745;BME280;70143;52.396;16.950;2023-06-05T11:00:37;101157.19;;;25.10;20.15
80745;BME280;70143;52.396;16.950;2023-06-05T11:03:04;101155.72;;;25.06;20.27
80745;BME280;70143;52.396;16.950;2023-06-05T11:05:30;101138.84;;;25.06;20.03
80745;BME280;70143;52.396;16.950;2023-06-05T11:08:15;101150.44;;;25.16;20.25
80745;BME280;70143;52.396;16.950;2023-06-05T11:11:07;101138.81;;;25.38;21.10
80745;BME280;70143;52.396;16.950;2023-06-05T11:13:53;101144.09;;;25.49;21.18
80745;BME280;70143;52.396;16.950;2023-06-05T11:16:32;101151.25;;;25.60;20.10
80745;BME280;70143;52.396;16.950;2023-06-05T11:22:10;101142.84;;;25.75;21.21
80745;BME280;70143;52.396;16.950;2023-06-05T11:24:36;101137.78;;;25.50;19.39
80745;BME280;70143;52.396;16.950;2023-06-05T11:27:03;101127.84;;;25.41;19.52
80745;BME280;70143;52.396;16.950;2023-06-05T11:29:29;101132.50;;;25.60;20.81
80745;BME280;70143;52.396;16.950;2023-06-05T11:31:55;101136.78;;;25.73;19.74
80745;BME280;70143;52.396;16.950;2023-06-05T11:34:21;101136.53;;;25.76;20.11
80745;BME280;70143;52.396;16.950;2023-06-05T11:36:46;101134.28;;;25.81;19.88
80745;BME280;70143;52.396;16.950;2023-06-05T11:39:12;101128.22;;;26.00;20.67
80745;BME280;70143;52.396;16.950;2023-06-05T11:41:45;101123.03;;;25.87;19.33
80745;BME280;70143;52.396;16.950;2023-06-05T11:44:11;101124.13;;;26.06;19.61
80745;BME280;70143;52.396;16.950;2023-06-05T11:46:39;101127.25;;;26.11;19.77
80745;BME280;70143;52.396;16.950;2023-06-05T11:49:06;101124.19;;;26.15;18.96
80745;BME280;70143;52.396;16.950;2023-06-05T11:51:33;101118.06;;;26.03;18.95
80745;BME280;70143;52.396;16.950;2023-06-05T11:53:59;101125.66;;;25.98;19.73
80745;BME280;70143;52.396;16.950;2023-06-05T11:56:24;101117.25;;;26.13;19.33
80745;BME280;70143;52.396;16.950;2023-06-05T11:58:50;101112.19;;;26.19;20.02
80745;BME280;70143;52.396;16.950;2023-06-05T12:01:17;101113.09;;;26.39;19.84
80745;BME280;70143;52.396;16.950;2023-06-05T12:03:44;101106.78;;;26.10;19.12
80745;BME280;70143;52.396;16.950;2023-06-05T12:06:11;101100.28;;;26.02;19.27
80745;BME280;70143;52.396;16.950;2023-06-05T12:08:36;101111.34;;;26.19;19.61
80745;BME280;70143;52.396;16.950;2023-06-05T12:11:22;101091.91;;;26.36;19.29
80745;BME280;70143;52.396;16.950;2023-06-05T12:13:52;101100.09;;;26.35;20.02
80745;BME280;70143;52.396;16.950;2023-06-05T12:16:29;101099.13;;;26.46;18.90
80745;BME280;70143;52.396;16.950;2023-06-05T12:18:55;101089.84;;;26.50;19.43
80745;BME280;70143;52.396;16.950;2023-06-05T12:21:25;101090.28;;;26.65;18.84
80745;BME280;70143;52.396;16.950;2023-06-05T12:23:51;101095.25;;;26.69;19.04
80745;BME280;70143;52.396;16.950;2023-06-05T12:26:17;101086.06;;;26.91;20.02
80745;BME280;70143;52.396;16.950;2023-06-05T12:28:43;101091.97;;;27.24;19.21
80745;BME280;70143;52.396;16.950;2023-06-05T12:31:10;101079.66;;;27.51;18.82
80745;BME280;70143;52.396;16.950;2023-06-05T12:33:54;101091.66;;;27.57;18.94
80745;BME280;70143;52.396;16.950;2023-06-05T12:36:20;101083.34;;;27.88;18.51
80745;BME280;70143;52.396;16.950;2023-06-05T12:38:46;101085.84;;;28.09;17.50
80745;BME280;70143;52.396;16.950;2023-06-05T12:41:11;101074.50;;;28.05;17.94
80745;BME280;70143;52.396;16.950;2023-06-05T12:43:36;101079.47;;;28.28;17.72
80745;BME280;70143;52.396;16.950;2023-06-05T12:46:02;101065.53;;;28.42;17.58
80745;BME280;70143;52.396;16.950;2023-06-05T12:48:28;101075.06;;;28.55;16.83
80745;BME280;70143;52.396;16.950;2023-06-05T12:50:53;101067.50;;;28.68;17.32
80745;BME280;70143;52.396;16.950;2023-06-05T12:53:19;101068.63;;;28.83;17.19